Flight Track Log - Related Links

Times and Time Zones

All times are in EDT time to prevent confusion due to time zone crossing. See the SWA642 flight status page for this flight to view local times or setup timezone preferences in your user account.

Time Position Orientation Groundspeed Altitude Reporting Facility
EDT Latitude Longitude Course Direction KTS MPH feet Rate Location/Type
Tue 06:58:21 AM 40.7833 -73.1333 136° Southeast 146 168 1,500  Level New York TRACON
Tue 07:00:01 AM 40.7378 -73.0756 136° Southeast 162 186 4,000 1,838 Climbing Boston Center
Tue 07:01:01 AM 40.7425 -72.9714 87° East 193 222 6,400 2,900 Climbing Boston Center
Tue 07:02:01 AM 40.7367 -72.8508 94° East 267 307 9,800 1,746 Climbing Boston Center
Tue 07:03:15 AM 40.7328 -72.7306 92° East 324 373 10,300 1,985 Climbing Boston Center
Tue 07:04:14 AM 40.6433 -72.7300 180° South 199 229 14,200 3,559 Climbing Boston Center
Tue 07:05:13 AM 40.6136 -72.8528 252° West 216 249 17,300 2,902 Climbing Boston Center
Tue 07:06:47 AM 40.5669 -73.0414 252° West 301 346 21,600 2,863 Climbing New York Center
Tue 07:07:46 AM 40.5331 -73.1794 252° West 365 420 24,600 2,600 Climbing New York Center
Tue 07:08:47 AM 40.5008 -73.3175 253° West 390 449 26,800 2,213 Climbing New York Center
Tue 07:09:48 AM 40.4664 -73.4636 253° West 409 471 29,100 2,281 Climbing New York Center
Tue 07:10:48 AM 40.4275 -73.6092 251° West 421 484 31,400 2,370 Climbing New York Center
Tue 07:11:47 AM 40.3950 -73.7497 253° West 421 484 33,800 2,350 Climbing New York Center
Tue 07:12:48 AM 40.3533 -73.9031 250° West 412 474 36,100 1,983 Climbing New York Center
Tue 07:13:48 AM 40.3183 -74.0403 252° West 407 468 37,800 1,664 Climbing New York Center
Tue 07:14:47 AM 40.2811 -74.1800 251° West 402 463 39,400 1,100 Climbing New York Center
Tue 07:15:48 AM 40.2481 -74.3117 252° West 402 463 40,000 298 Climbing New York Center
Tue 07:16:48 AM 40.2147 -74.4458 252° West 402 463 40,000  Level New York Center
Tue 07:17:49 AM 40.1958 -74.5833 260° West 402 463 40,000  Level New York Center
Tue 07:18:46 AM 40.1856 -74.7050 264° West 387 445 40,000  Level New York Center
Tue 07:19:47 AM 40.1764 -74.8539 265° West 387 445 40,000  Level New York Center
Tue 07:20:47 AM 40.1653 -74.9919 264° West 387 445 40,000  Level New York Center
Tue 07:21:47 AM 40.1539 -75.1322 264° West 387 445 40,000  Level New York Center
Tue 07:22:48 AM 40.1422 -75.2700 264° West 387 445 40,000  Level New York Center
Tue 07:23:48 AM 40.1183 -75.4044 257° West 387 445 40,000  Level New York Center
Tue 07:24:47 AM 40.0389 -75.5156 227° Southwest 379 436 40,000  Level New York Center
Tue 07:25:47 AM 39.9664 -75.6108 225° Southwest 404 465 40,000  Level New York Center
Tue 07:26:48 AM 39.8908 -75.7194 228° Southwest 411 473 40,000  Level New York Center
Tue 07:28:45 AM 39.7506 -75.9397 230° Southwest 402 463 40,000  Level Washington Center
Tue 07:29:45 AM 39.6772 -76.0497 229° Southwest 402 463 40,000  Level Washington Center
Tue 07:30:45 AM 39.6122 -76.1625 233° Southwest 402 463 40,000  Level Washington Center
Tue 07:31:45 AM 39.5408 -76.2722 230° Southwest 402 463 40,000  Level Washington Center
Tue 07:32:45 AM 39.4672 -76.3792 228° Southwest 402 463 40,000  Level Washington Center
Tue 07:33:45 AM 39.3978 -76.4911 231° Southwest 402 463 40,000  Level Washington Center
Tue 07:34:45 AM 39.3281 -76.6031 231° Southwest 402 463 40,000  Level Washington Center
Tue 07:35:45 AM 39.2561 -76.7147 230° Southwest 402 463 40,000  Level Washington Center
Tue 07:36:45 AM 39.1822 -76.8258 229° Southwest 402 463 40,000  Level Washington Center
Tue 07:37:45 AM 39.1122 -76.9372 231° Southwest 402 463 40,000  Level Washington Center
Tue 07:38:45 AM 39.0381 -77.0508 230° Southwest 402 463 40,000  Level Washington Center
Tue 07:39:45 AM 38.9492 -77.1450 219° Southwest 407 468 40,000  Level Washington Center
Tue 07:40:45 AM 38.8625 -77.2392 220° Southwest 412 474 40,000  Level Washington Center
Tue 07:41:45 AM 38.7717 -77.3331 219° Southwest 418 481 40,000  Level Washington Center
Tue 07:42:45 AM 38.6867 -77.4269 221° Southwest 413 475 40,000  Level Washington Center
Tue 07:43:45 AM 38.5978 -77.5228 220° Southwest 413 475 40,000  Level Washington Center
Tue 07:44:45 AM 38.5042 -77.6267 221° Southwest 413 475 40,000  Level Washington Center
Tue 07:45:45 AM 38.4192 -77.7197 221° Southwest 413 475 40,000  Level Washington Center
Tue 07:46:45 AM 38.3300 -77.8150 220° Southwest 413 475 40,000  Level Washington Center
Tue 07:47:45 AM 38.2428 -77.9075 220° Southwest 413 475 40,000  Level Washington Center
Tue 07:48:45 AM 38.1553 -78.0000 220° Southwest 413 475 40,000  Level Washington Center
Tue 07:49:45 AM 38.0658 -78.0947 220° Southwest 413 475 40,000  Level Washington Center
Tue 07:50:46 AM 37.9847 -78.1869 222° Southwest 401 461 40,000  Level Washington Center
Tue 07:51:45 AM 37.8908 -78.2758 217° Southwest 406 467 40,000  Level Washington Center
Tue 07:52:45 AM 37.7972 -78.3644 217° Southwest 419 482 40,000  Level Washington Center
Tue 07:53:45 AM 37.7056 -78.4503 217° Southwest 426 490 40,000  Level Washington Center
Tue 07:54:45 AM 37.6222 -78.5258 216° Southwest 426 490 40,000  Level Washington Center
Tue 07:55:45 AM 37.5303 -78.6139 217° Southwest 426 490 40,000  Level Washington Center
Tue 07:56:45 AM 37.4364 -78.7017 217° Southwest 426 490 40,000  Level Washington Center
Tue 07:57:45 AM 37.3444 -78.7894 217° Southwest 426 490 40,000  Level Washington Center
Tue 07:58:45 AM 37.2503 -78.8717 215° Southwest 426 490 40,000  Level Washington Center
Tue 07:59:45 AM 37.1453 -78.9686 216° Southwest 426 490 40,000  Level Washington Center
Tue 08:00:45 AM 37.0511 -79.0583 217° Southwest 426 490 40,000  Level Washington Center
Tue 08:01:45 AM 36.9589 -79.1425 216° Southwest 426 490 40,000  Level Washington Center
Tue 08:02:45 AM 36.8644 -79.2317 217° Southwest 426 490 40,000  Level Washington Center
Tue 08:03:45 AM 36.7722 -79.3156 216° Southwest 426 490 40,000  Level Washington Center
Tue 08:04:46 AM 36.6883 -79.3944 217° Southwest 426 490 40,000  Level Washington Center
Tue 08:05:45 AM 36.5914 -79.4828 216° Southwest 426 490 40,000  Level Washington Center
Tue 08:06:45 AM 36.4969 -79.5683 216° Southwest 426 490 40,000  Level Washington Center
Tue 08:08:17 AM 36.3486 -79.6978 215° Southwest 428 493 40,000  Level Atlanta Center
Tue 08:09:17 AM 36.2517 -79.7856 216° Southwest 433 498 40,000  Level Atlanta Center
Tue 08:10:17 AM 36.1606 -79.8700 217° Southwest 433 498 40,000  Level Atlanta Center
Tue 08:11:17 AM 36.0633 -79.9544 215° Southwest 433 498 40,000  Level Atlanta Center
Tue 08:12:17 AM 35.9444 -80.0222 205° Southwest 433 498 40,000  Level Atlanta Center
Tue 08:13:17 AM 35.8339 -80.0814 203° Southwest 433 498 40,000  Level Atlanta Center
Tue 08:14:17 AM 35.7231 -80.1353 202° Southwest 438 504 40,000  Level Atlanta Center
Tue 08:15:17 AM 35.6161 -80.1917 203° Southwest 433 498 40,000  Level Atlanta Center
Tue 08:16:17 AM 35.5011 -80.2506 203° Southwest 438 504 40,000  Level Atlanta Center
Tue 08:17:17 AM 35.3903 -80.3039 201° Southwest 432 497 40,000  Level Atlanta Center
Tue 08:18:17 AM 35.2792 -80.3600 202° Southwest 432 497 40,000  Level Atlanta Center
Tue 08:19:17 AM 35.1786 -80.4103 202° Southwest 432 497 40,000  Level Atlanta Center
Tue 08:20:55 AM 34.9986 -80.4978 202° Southwest 437 503 40,000  Level Jacksonville Center
Tue 08:21:55 AM 34.8789 -80.5594 203° Southwest 432 497 40,000  Level Jacksonville Center
Tue 08:22:55 AM 34.7817 -80.6100 203° Southwest 427 491 40,000  Level Jacksonville Center
Tue 08:23:55 AM 34.6742 -80.6608 201° Southwest 427 491 40,000  Level Jacksonville Center
Tue 08:24:55 AM 34.5439 -80.7247 202° Southwest 445 512 40,000  Level Jacksonville Center
Tue 08:25:55 AM 34.4322 -80.7856 204° Southwest 450 518 40,000  Level Jacksonville Center
Tue 08:26:55 AM 34.3183 -80.8361 200° South 443 510 40,000  Level Jacksonville Center
Tue 08:27:55 AM 34.2106 -80.8864 201° Southwest 438 504 40,000  Level Jacksonville Center
Tue 08:28:55 AM 34.0967 -80.9442 203° Southwest 433 498 40,000  Level Jacksonville Center
Tue 08:29:55 AM 33.9828 -80.9992 202° Southwest 438 504 40,000  Level Jacksonville Center
Tue 08:30:55 AM 33.8792 -81.0439 200° South 438 504 40,000  Level Jacksonville Center
Tue 08:31:55 AM 33.7653 -81.0989 202° Southwest 443 510 40,000  Level Jacksonville Center
Tue 08:32:55 AM 33.6408 -81.1636 203° Southwest 443 510 40,000  Level Jacksonville Center
Tue 08:33:55 AM 33.5289 -81.2206 203° Southwest 443 510 40,000  Level Jacksonville Center
Tue 08:34:55 AM 33.4192 -81.2725 202° Southwest 443 510 40,000  Level Jacksonville Center
Tue 08:35:55 AM 33.3069 -81.3292 203° Southwest 443 510 40,000  Level Jacksonville Center
Tue 08:36:55 AM 33.1931 -81.3858 203° Southwest 438 504 40,000  Level Jacksonville Center
Tue 08:37:55 AM 33.0831 -81.4397 202° Southwest 438 504 40,000  Level Jacksonville Center
Tue 08:38:55 AM 32.9708 -81.4936 202° Southwest 433 498 40,000  Level Jacksonville Center
Tue 08:39:55 AM 32.8586 -81.5447 201° Southwest 433 498 40,000  Level Jacksonville Center
Tue 08:40:55 AM 32.7486 -81.5983 202° Southwest 433 498 40,000  Level Jacksonville Center
Tue 08:41:55 AM 32.6467 -81.6392 199° South 433 498 40,000  Level Jacksonville Center
Tue 08:42:55 AM 32.5136 -81.6731 192° South 433 498 40,000  Level Jacksonville Center
Tue 08:43:55 AM 32.3947 -81.6992 191° South 443 510 40,000  Level Jacksonville Center
Tue 08:44:55 AM 32.2719 -81.7328 193° South 450 518 40,000  Level Jacksonville Center
Tue 08:45:55 AM 32.1511 -81.7614 191° South 450 518 40,000  Level Jacksonville Center
Tue 08:46:55 AM 32.0428 -81.7847 190° South 450 518 40,000  Level Jacksonville Center
Tue 08:47:55 AM 31.9094 -81.8181 192° South 451 519 40,000  Level Jacksonville Center
Tue 08:48:55 AM 31.7886 -81.8464 191° South 445 512 40,000  Level Jacksonville Center
Tue 08:49:55 AM 31.6697 -81.8747 191° South 445 512 40,000  Level Jacksonville Center
Tue 08:50:55 AM 31.5508 -81.9028 191° South 445 512 40,000  Level Jacksonville Center
Tue 08:51:55 AM 31.4425 -81.9283 191° South 445 512 40,000  Level Jacksonville Center
Tue 08:52:55 AM 31.3194 -81.9564 191° South 452 520 40,000 -50 Level Jacksonville Center
Tue 08:53:55 AM 31.2008 -81.9867 192° South 447 514 39,900 -550 Descending Jacksonville Center
Tue 08:54:55 AM 31.0800 -82.0144 191° South 447 514 38,900 -950 Descending Jacksonville Center
Tue 08:55:55 AM 30.9611 -82.0422 191° South 447 514 38,000 -450 Descending Jacksonville Center
Tue 08:56:55 AM 30.8403 -82.0722 192° South 447 514 38,000  Level Jacksonville Center
Tue 08:57:55 AM 30.7214 -82.0975 190° South 447 514 38,000  Level Jacksonville Center
Tue 08:58:55 AM 30.6003 -82.1300 193° South 447 514 38,000  Level Jacksonville Center
Tue 08:59:55 AM 30.4814 -82.1500 188° South 447 514 38,000  Level Jacksonville Center
Tue 09:00:55 AM 30.3606 -82.1800 192° South 447 514 38,000  Level Jacksonville Center
Tue 09:01:55 AM 30.2397 -82.2050 190° South 447 514 38,000 -450 Level Jacksonville Center
Tue 09:02:55 AM 30.1103 -82.2369 192° South 447 514 37,100 -1,600 Descending Jacksonville Center
Tue 09:03:55 AM 30.0019 -82.2667 193° South 437 503 34,800 -2,250 Descending Jacksonville Center
Tue 09:04:55 AM 29.8850 -82.2914 190° South 437 503 32,600 -2,150 Descending Jacksonville Center
Tue 09:05:55 AM 29.7703 -82.3183 192° South 430 495 30,500 -2,250 Descending Jacksonville Center
Tue 09:06:55 AM 29.6517 -82.3428 190° South 414 476 28,100 -2,050 Descending Jacksonville Center
Tue 09:07:55 AM 29.5408 -82.3531 185° South 409 471 26,400 -1,350 Descending Jacksonville Center
Tue 09:08:55 AM 29.4303 -82.3417 175° South 404 465 25,400 -1,250 Descending Jacksonville Center
Tue 09:09:55 AM 29.3194 -82.3281 174° South 404 465 23,900 -1,400 Descending Jacksonville Center
Tue 09:10:55 AM 29.2047 -82.3144 174° South 404 465 22,600 -1,250 Descending Jacksonville Center
Tue 09:11:55 AM 29.0836 -82.3008 174° South 426 490 21,400 -2,000 Descending Jacksonville Center
Tue 09:12:55 AM 28.9644 -82.2850 173° South 432 497 18,600 -2,550 Descending Jacksonville Center
Tue 09:13:55 AM 28.8600 -82.2761 176° South 432 497 16,300 -1,821 Descending Jacksonville Center
Tue 09:16:16 AM 28.6000 -82.2500 175° South 377 434 12,500 -1,701 Descending Tampa TRACON
Tue 09:17:16 AM 28.5167 -82.2167 161° South 343 395 10,600 -1,450 Descending Tampa TRACON
Tue 09:18:16 AM 28.4333 -82.1667 152° Southeast 305 351 9,600 -1,250 Descending Tampa TRACON
Tue 09:19:16 AM 28.3667 -82.1833 192° South 283 326 8,100 -1,300 Descending Tampa TRACON
Tue 09:20:16 AM 28.3000 -82.2500 221° Southwest 284 327 7,000 -900 Descending Tampa TRACON
Tue 09:21:16 AM 28.2833 -82.3167 254° West 263 303 6,300 -1,091 Descending Tampa TRACON
Tue 09:22:17 AM 28.2667 -82.4167 259° West 268 308 4,800 -1,240 Descending Tampa TRACON
Tue 09:23:17 AM 28.2333 -82.4667 233° Southwest 252 290 3,800 -900 Descending Tampa TRACON
Tue 09:24:17 AM 28.1833 -82.5000 210° Southwest 238 274 3,000 -550 Descending Tampa TRACON
Tue 09:25:17 AM 28.1167 -82.5333 204° Southwest 200 230 2,700 -300 Descending Tampa TRACON

Login

Don't have an account? Register now (free) for customized features, flight alerts, and more!